createdAt,value
2023-03-11T00:00:22.804Z,0.60
2023-03-11T00:02:52.510Z,0.60
2023-03-11T00:05:31.278Z,0.60
2023-03-11T00:07:58.357Z,0.60
2023-03-11T00:10:34.418Z,0.60
2023-03-11T00:13:02.274Z,0.60
2023-03-11T00:15:30.152Z,0.60
2023-03-11T00:17:58.121Z,0.50
2023-03-11T00:20:33.816Z,0.50
2023-03-11T00:23:01.761Z,0.50
2023-03-11T00:25:31.468Z,0.50
2023-03-11T00:27:59.460Z,0.50
2023-03-11T00:30:26.870Z,0.50
2023-03-11T00:32:57.406Z,0.50
2023-03-11T00:35:27.859Z,0.60
2023-03-11T00:38:01.031Z,0.60
2023-03-11T00:40:30.019Z,0.60
2023-03-11T00:42:57.345Z,0.60
2023-03-11T00:45:25.048Z,0.60
2023-03-11T00:47:53.140Z,0.60
2023-03-11T00:50:31.841Z,0.60
2023-03-11T00:52:59.267Z,0.50
2023-03-11T00:55:30.005Z,0.60
2023-03-11T00:58:00.197Z,0.60
2023-03-11T01:00:28.608Z,0.50
2023-03-11T01:02:57.020Z,0.60
2023-03-11T01:05:27.201Z,0.50
2023-03-11T01:07:54.206Z,0.50
2023-03-11T01:10:21.336Z,0.50
2023-03-11T01:12:48.769Z,0.50
2023-03-11T01:15:20.340Z,0.40
2023-03-11T01:17:47.437Z,0.40
2023-03-11T01:20:15.162Z,0.40
2023-03-11T01:22:42.347Z,0.40
2023-03-11T01:25:13.036Z,0.40
2023-03-11T01:27:40.150Z,0.40
2023-03-11T01:30:07.910Z,0.40
2023-03-11T01:32:35.293Z,0.40
2023-03-11T01:35:02.321Z,0.40
2023-03-11T01:37:29.412Z,0.30
2023-03-11T01:39:56.428Z,0.40
2023-03-11T01:42:23.720Z,0.30
2023-03-11T01:44:50.697Z,0.40
2023-03-11T01:47:38.881Z,0.40
2023-03-11T01:50:11.621Z,0.30
2023-03-11T01:52:39.158Z,0.30
2023-03-11T01:55:07.399Z,0.30
2023-03-11T01:57:35.171Z,0.30
2023-03-11T02:00:05.502Z,0.30
2023-03-11T02:02:37.793Z,0.30
2023-03-11T02:08:10.629Z,0.30
2023-03-11T02:11:27.973Z,0.20
2023-03-11T02:13:30.226Z,0.20
2023-03-11T02:16:00.823Z,0.20
2023-03-11T02:18:29.664Z,0.20
2023-03-11T02:21:26.637Z,0.20
2023-03-11T02:24:22.771Z,0.20
2023-03-11T02:27:00.673Z,0.10
2023-03-11T02:29:28.953Z,0.10
2023-03-11T02:31:58.957Z,0.00
2023-03-11T02:34:32.174Z,0.00
2023-03-11T02:37:00.474Z,-0.10
2023-03-11T02:39:37.788Z,-0.10
2023-03-11T02:42:13.749Z,-0.20
2023-03-11T02:45:23.421Z,-0.30
2023-03-11T02:47:58.101Z,-0.30
2023-03-11T02:50:29.846Z,-0.40
2023-03-11T02:52:57.051Z,-0.50
2023-03-11T02:55:34.936Z,-0.60
2023-03-11T02:58:02.226Z,-0.70
2023-03-11T03:00:29.613Z,-0.70
2023-03-11T03:02:56.829Z,-0.80
2023-03-11T03:05:24.295Z,-0.80
2023-03-11T03:07:52.050Z,-0.90
2023-03-11T03:10:21.202Z,-0.90
2023-03-11T03:12:48.318Z,-1.00
2023-03-11T03:15:16.267Z,-1.00
2023-03-11T03:17:44.082Z,-1.20
2023-03-11T03:20:12.784Z,-1.20
2023-03-11T03:22:43.813Z,-1.30
2023-03-11T03:25:11.715Z,-1.30
2023-03-11T03:27:39.293Z,-1.30
2023-03-11T03:30:07.289Z,-1.40
2023-03-11T03:32:35.086Z,-1.50
2023-03-11T03:35:02.998Z,-1.50
2023-03-11T03:37:34.580Z,-1.60
2023-03-11T03:40:07.900Z,-1.60
2023-03-11T03:42:36.521Z,-1.70
2023-03-11T03:45:06.225Z,-1.70
2023-03-11T03:47:34.237Z,-1.80
2023-03-11T03:50:02.496Z,-1.80
2023-03-11T03:52:29.536Z,-1.80
2023-03-11T03:54:56.617Z,-1.90
2023-03-11T03:57:23.698Z,-1.90
2023-03-11T03:59:50.698Z,-1.90
2023-03-11T04:02:17.762Z,-1.90
2023-03-11T04:04:44.833Z,-2.00
2023-03-11T04:07:11.935Z,-2.00
2023-03-11T04:09:43.712Z,-2.10
2023-03-11T04:12:15.498Z,-2.10
2023-03-11T04:14:42.694Z,-2.20
2023-03-11T04:17:14.133Z,-2.20
2023-03-11T04:19:41.239Z,-2.20
2023-03-11T04:22:08.742Z,-2.20
2023-03-11T04:24:35.812Z,-2.20
2023-03-11T04:27:02.882Z,-2.10
2023-03-11T04:29:30.035Z,-2.10
2023-03-11T04:31:57.056Z,-2.10
2023-03-11T04:34:24.265Z,-2.10
2023-03-11T04:36:55.272Z,-2.10
2023-03-11T04:39:22.289Z,-2.00
2023-03-11T04:41:49.518Z,-1.90
2023-03-11T04:44:16.544Z,-1.90
2023-03-11T04:46:43.631Z,-1.80
2023-03-11T04:49:10.811Z,-1.80
2023-03-11T04:51:37.974Z,-1.70
2023-03-11T04:54:05.480Z,-1.70
2023-03-11T04:56:32.530Z,-1.60
2023-03-11T04:58:59.542Z,-1.70
2023-03-11T05:01:26.633Z,-1.70
2023-03-11T05:03:53.708Z,-1.70
2023-03-11T05:06:20.878Z,-1.70
2023-03-11T05:08:48.006Z,-1.70
2023-03-11T05:11:15.061Z,-1.70
2023-03-11T05:13:42.151Z,-1.70
2023-03-11T05:16:09.371Z,-1.70
2023-03-11T05:18:36.499Z,-1.70
2023-03-11T05:21:03.662Z,-1.70
2023-03-11T05:23:30.698Z,-1.70
2023-03-11T05:25:57.868Z,-1.80
2023-03-11T05:28:24.883Z,-1.80
2023-03-11T05:30:52.009Z,-1.70
2023-03-11T05:33:19.160Z,-1.70
2023-03-11T05:35:46.336Z,-1.80
2023-03-11T05:38:13.528Z,-1.80
2023-03-11T05:40:40.620Z,-1.80
2023-03-11T05:43:07.630Z,-1.80
2023-03-11T05:45:34.816Z,-1.80
2023-03-11T05:48:01.817Z,-1.90
2023-03-11T05:50:28.851Z,-1.80
2023-03-11T05:52:55.910Z,-1.80
2023-03-11T05:55:22.861Z,-1.80
2023-03-11T05:57:52.002Z,-1.80
2023-03-11T06:00:20.615Z,-1.80
2023-03-11T06:02:47.673Z,-1.80
2023-03-11T06:05:15.042Z,-1.80
2023-03-11T06:07:42.063Z,-1.80
2023-03-11T06:10:09.969Z,-1.90
2023-03-11T06:12:38.648Z,-1.90
2023-03-11T06:15:09.065Z,-2.00
2023-03-11T06:17:36.044Z,-2.00
2023-03-11T06:20:03.576Z,-2.00
2023-03-11T06:22:30.609Z,-2.00
2023-03-11T06:24:57.555Z,-2.00
2023-03-11T06:27:24.534Z,-2.10
2023-03-11T06:29:54.845Z,-2.10
2023-03-11T06:32:21.890Z,-2.10
2023-03-11T06:34:52.966Z,-2.10
2023-03-11T06:37:21.233Z,-2.10
2023-03-11T06:39:51.994Z,-2.10
2023-03-11T06:42:19.026Z,-2.20
2023-03-11T06:44:48.651Z,-2.20
2023-03-11T06:47:16.036Z,-2.20
2023-03-11T06:49:43.150Z,-2.00
2023-03-11T06:52:10.551Z,-1.80
2023-03-11T06:54:37.861Z,-1.20
2023-03-11T06:57:08.048Z,-0.50
2023-03-11T06:59:35.724Z,0.30
2023-03-11T07:02:04.095Z,0.90
2023-03-11T07:04:32.186Z,1.60
2023-03-11T07:06:59.590Z,2.10
2023-03-11T07:09:27.895Z,2.60
2023-03-11T07:11:55.614Z,2.80
2023-03-11T07:14:23.135Z,3.20
2023-03-11T07:16:50.274Z,3.90
2023-03-11T07:19:17.786Z,4.20
2023-03-11T07:21:44.910Z,4.80
2023-03-11T07:24:14.332Z,4.40
2023-03-11T07:26:44.296Z,3.90
2023-03-11T07:29:11.753Z,3.00
2023-03-11T07:31:39.287Z,2.30
2023-03-11T07:34:11.441Z,1.60
2023-03-11T07:36:42.403Z,1.30
2023-03-11T07:39:15.099Z,1.30
2023-03-11T07:41:42.346Z,1.50
2023-03-11T07:44:13.053Z,2.10
2023-03-11T07:46:40.348Z,2.80
2023-03-11T07:49:07.618Z,3.40
2023-03-11T07:51:36.036Z,4.10
2023-03-11T07:54:04.268Z,4.40
2023-03-11T07:56:34.106Z,4.20
2023-03-11T07:59:02.390Z,4.30
2023-03-11T08:01:36.185Z,3.90
2023-03-11T08:04:07.411Z,3.30
2023-03-11T08:06:36.787Z,2.70
2023-03-11T08:09:06.962Z,2.60
2023-03-11T08:11:34.019Z,2.70
2023-03-11T08:14:01.278Z,2.70
2023-03-11T08:16:28.528Z,2.50
2023-03-11T08:18:55.924Z,2.60
2023-03-11T08:21:25.972Z,2.40
2023-03-11T08:23:56.659Z,2.20
2023-03-11T08:26:23.868Z,2.10
2023-03-11T08:28:51.105Z,2.20
2023-03-11T08:31:21.287Z,2.40
2023-03-11T08:33:52.545Z,2.40
2023-03-11T08:36:20.570Z,2.30
2023-03-11T08:38:47.857Z,2.10
2023-03-11T08:41:15.742Z,2.00
2023-03-11T08:43:43.059Z,2.00
2023-03-11T08:46:23.997Z,2.10
2023-03-11T08:48:51.239Z,2.20
2023-03-11T08:51:18.713Z,2.30
2023-03-11T08:53:46.320Z,2.30
2023-03-11T08:56:13.302Z,2.40
2023-03-11T08:58:40.274Z,2.40
2023-03-11T09:01:09.229Z,2.20
2023-03-11T09:03:37.065Z,2.10
2023-03-11T09:06:11.240Z,2.30
2023-03-11T09:08:38.369Z,2.20
2023-03-11T09:11:05.957Z,2.30
2023-03-11T09:13:33.340Z,2.30
2023-03-11T09:16:00.457Z,2.30
2023-03-11T09:18:29.384Z,2.20
2023-03-11T09:20:58.556Z,2.00
2023-03-11T09:23:25.546Z,1.90
2023-03-11T09:25:52.559Z,2.00
2023-03-11T09:28:19.689Z,2.30
2023-03-11T09:30:46.657Z,2.40
2023-03-11T09:33:13.627Z,2.40
2023-03-11T09:35:40.600Z,2.30
2023-03-11T09:38:07.630Z,2.40
2023-03-11T09:40:57.658Z,2.50
2023-03-11T09:43:56.737Z,2.40
2023-03-11T09:46:41.517Z,2.40
2023-03-11T09:49:27.234Z,2.40
2023-03-11T09:52:18.257Z,2.60
2023-03-11T09:54:53.151Z,2.70
2023-03-11T09:57:27.884Z,2.90
2023-03-11T09:59:56.070Z,3.00
2023-03-11T10:02:28.139Z,3.00
2023-03-11T10:04:57.933Z,2.90
2023-03-11T10:07:33.577Z,2.80
2023-03-11T10:10:00.833Z,2.50
2023-03-11T10:12:43.165Z,2.40
2023-03-11T10:15:16.880Z,2.20
2023-03-11T10:18:02.025Z,2.20
2023-03-11T10:20:54.146Z,2.20
2023-03-11T10:23:36.038Z,2.10
2023-03-11T10:26:43.116Z,2.10
2023-03-11T10:29:23.898Z,2.00
2023-03-11T10:31:59.929Z,2.00
2023-03-11T10:34:34.494Z,2.10
2023-03-11T10:37:18.788Z,2.10
2023-03-11T10:39:50.979Z,2.10
2023-03-11T10:42:29.635Z,2.20
2023-03-11T10:44:56.647Z,2.10
2023-03-11T10:47:25.720Z,2.30
2023-03-11T10:49:52.880Z,2.30
2023-03-11T10:52:20.662Z,2.50
2023-03-11T10:54:59.035Z,2.60
2023-03-11T10:57:34.805Z,2.60
2023-03-11T11:00:17.562Z,2.60
2023-03-11T11:03:01.713Z,2.70
2023-03-11T11:05:28.676Z,2.80
2023-03-11T11:08:16.080Z,2.80
2023-03-11T11:10:50.588Z,3.10
2023-03-11T11:13:20.382Z,3.30
2023-03-11T11:15:57.698Z,3.30
2023-03-11T11:18:35.633Z,3.40
2023-03-11T11:21:05.219Z,3.20
2023-03-11T11:23:37.548Z,3.40
2023-03-11T11:26:25.730Z,3.40
2023-03-11T11:29:09.093Z,3.50
2023-03-11T11:31:44.009Z,3.60
2023-03-11T11:34:32.465Z,3.50
2023-03-11T11:37:04.770Z,3.50
2023-03-11T11:39:43.889Z,3.70
2023-03-11T11:42:14.895Z,4.00
2023-03-11T11:44:43.897Z,4.10
2023-03-11T11:47:17.372Z,4.10
2023-03-11T11:50:05.155Z,4.20
2023-03-11T11:52:37.890Z,4.20
2023-03-11T11:55:17.299Z,4.20
2023-03-11T11:57:44.251Z,4.00
2023-03-11T12:00:21.978Z,4.00
2023-03-11T12:03:16.683Z,3.80
2023-03-11T12:05:58.210Z,3.50
2023-03-11T12:08:47.191Z,3.30
2023-03-11T12:11:24.854Z,3.10
2023-03-11T12:13:51.858Z,3.20
2023-03-11T12:16:30.709Z,3.10
2023-03-11T12:19:04.051Z,3.30
2023-03-11T12:21:46.057Z,3.50
2023-03-11T12:24:37.493Z,3.80
2023-03-11T12:27:19.438Z,4.10
2023-03-11T12:29:52.366Z,4.40
2023-03-11T12:32:27.813Z,4.40
2023-03-11T12:34:54.857Z,4.60
2023-03-11T12:37:23.602Z,5.00
2023-03-11T12:39:50.638Z,5.50
2023-03-11T12:42:23.060Z,5.90
2023-03-11T12:44:50.864Z,6.40
2023-03-11T12:47:19.193Z,7.10
2023-03-11T12:49:52.156Z,7.30
2023-03-11T12:52:24.471Z,7.00
2023-03-11T12:54:57.255Z,6.50
2023-03-11T12:57:27.074Z,6.20
2023-03-11T13:00:24.780Z,6.00
2023-03-11T13:03:10.096Z,6.10
2023-03-11T13:05:52.246Z,5.90
2023-03-11T13:08:25.857Z,5.50
2023-03-11T13:10:54.807Z,5.20
2023-03-11T13:13:33.794Z,5.20
2023-03-11T13:16:13.106Z,5.20
2023-03-11T13:18:45.269Z,5.00
2023-03-11T13:21:30.298Z,5.20
2023-03-11T13:24:19.344Z,5.20
2023-03-11T13:27:17.980Z,5.20
2023-03-11T13:30:10.688Z,5.00
2023-03-11T13:32:52.541Z,5.20
2023-03-11T13:35:22.561Z,5.20
2023-03-11T13:38:10.779Z,5.00
2023-03-11T13:40:40.497Z,4.90
2023-03-11T13:43:26.366Z,5.00
2023-03-11T13:46:20.101Z,5.30
2023-03-11T13:48:49.517Z,5.40
2023-03-11T13:51:25.507Z,5.40
2023-03-11T13:54:26.128Z,5.50
2023-03-11T13:56:59.446Z,5.70
2023-03-11T13:59:32.233Z,6.00
2023-03-11T14:02:17.479Z,6.20
2023-03-11T14:05:14.044Z,6.90
2023-03-11T14:07:41.163Z,8.20
2023-03-11T14:10:18.408Z,8.90
2023-03-11T14:12:45.957Z,9.70
2023-03-11T14:15:24.731Z,10.10
2023-03-11T14:17:53.315Z,10.50
2023-03-11T14:20:25.377Z,10.40
2023-03-11T14:22:55.110Z,10.20
2023-03-11T14:25:31.310Z,10.30
2023-03-11T14:28:01.845Z,10.20
2023-03-11T14:30:31.744Z,9.70
2023-03-11T14:33:20.678Z,9.00
2023-03-11T14:35:55.061Z,8.00
2023-03-11T14:38:24.434Z,6.80
2023-03-11T14:40:55.329Z,6.20
2023-03-11T14:43:22.723Z,5.70
2023-03-11T14:45:51.432Z,5.70
2023-03-11T14:48:21.250Z,6.00
2023-03-11T14:50:49.837Z,6.40
2023-03-11T14:53:43.737Z,6.60
2023-03-11T14:56:22.173Z,7.00
2023-03-11T14:59:06.605Z,7.30
2023-03-11T15:01:43.109Z,7.10
2023-03-11T15:04:14.144Z,6.80
2023-03-11T15:06:44.101Z,6.20
2023-03-11T15:09:14.598Z,5.70
2023-03-11T15:11:50.252Z,5.20
2023-03-11T15:14:28.219Z,5.00
2023-03-11T15:17:08.176Z,5.20
2023-03-11T15:19:35.438Z,5.70
2023-03-11T15:22:39.926Z,6.20
2023-03-11T15:25:18.531Z,6.70
2023-03-11T15:27:45.942Z,6.80
2023-03-11T15:30:23.984Z,6.60
2023-03-11T15:32:52.002Z,6.50
2023-03-11T15:35:19.017Z,6.20
2023-03-11T15:37:47.894Z,5.90
2023-03-11T15:40:43.907Z,5.50
2023-03-11T15:43:15.127Z,5.20
2023-03-11T15:45:43.493Z,4.80
2023-03-11T15:48:11.981Z,4.50
2023-03-11T15:50:53.712Z,4.40
2023-03-11T15:53:22.034Z,4.30
2023-03-11T15:55:49.227Z,4.20
2023-03-11T15:58:17.889Z,4.10
2023-03-11T16:00:48.786Z,4.00
2023-03-11T16:03:16.168Z,4.00
2023-03-11T16:05:43.309Z,3.90
2023-03-11T16:08:10.401Z,3.70
2023-03-11T16:10:38.031Z,3.50
2023-03-11T16:13:05.183Z,3.30
2023-03-11T16:15:35.532Z,3.00
2023-03-11T16:18:04.947Z,2.90
2023-03-11T16:20:38.820Z,2.70
2023-03-11T16:23:08.738Z,2.60
2023-03-11T16:25:39.761Z,2.50
2023-03-11T16:28:07.575Z,2.50
2023-03-11T16:30:35.317Z,2.50
2023-03-11T16:33:04.741Z,2.40
2023-03-11T16:35:32.764Z,2.40
2023-03-11T16:37:59.808Z,2.30
2023-03-11T16:40:28.498Z,2.20
2023-03-11T16:43:01.973Z,2.20
2023-03-11T16:45:29.244Z,2.10
2023-03-11T16:47:56.323Z,2.10
2023-03-11T16:50:24.498Z,2.00
2023-03-11T16:52:52.684Z,2.00
2023-03-11T16:55:20.029Z,1.90
2023-03-11T16:57:47.158Z,1.80
2023-03-11T17:00:15.218Z,1.70
2023-03-11T17:02:42.439Z,1.70
2023-03-11T17:05:13.199Z,1.60
2023-03-11T17:07:40.522Z,1.60
2023-03-11T17:10:09.843Z,1.50
2023-03-11T17:12:37.242Z,1.40
2023-03-11T17:15:06.904Z,1.40
2023-03-11T17:17:33.844Z,1.40
2023-03-11T17:20:00.844Z,1.20
2023-03-11T17:22:28.161Z,1.10
2023-03-11T17:24:55.233Z,1.10
2023-03-11T17:27:23.469Z,1.00
2023-03-11T17:29:50.630Z,1.00
2023-03-11T17:32:17.883Z,0.90
2023-03-11T17:34:45.073Z,0.80
2023-03-11T17:37:12.232Z,0.70
2023-03-11T17:39:39.242Z,0.60
2023-03-11T17:42:06.322Z,0.50
2023-03-11T17:44:50.093Z,0.40
2023-03-11T17:47:20.184Z,0.30
2023-03-11T17:49:49.400Z,0.30
2023-03-11T17:52:16.376Z,0.20
2023-03-11T17:54:43.857Z,0.20
2023-03-11T17:57:10.832Z,0.10
2023-03-11T17:59:37.776Z,0.10
2023-03-11T18:02:04.787Z,0.10
2023-03-11T18:04:31.742Z,0.00
2023-03-11T18:06:58.746Z,0.00
2023-03-11T18:09:25.847Z,-0.10
2023-03-11T18:11:54.348Z,-0.10
2023-03-11T18:14:21.430Z,-0.20
2023-03-11T18:16:48.497Z,-0.10
2023-03-11T18:19:15.548Z,-0.10
2023-03-11T18:21:42.611Z,-0.20
2023-03-11T18:24:09.560Z,-0.20
2023-03-11T18:26:36.615Z,-0.30
2023-03-11T18:29:03.805Z,-0.30
2023-03-11T18:31:31.721Z,-0.40
2023-03-11T18:34:04.152Z,-0.50
2023-03-11T18:36:33.426Z,-0.60
2023-03-11T18:39:04.976Z,-0.70
2023-03-11T18:41:34.486Z,-0.80
2023-03-11T18:44:02.168Z,-0.90
2023-03-11T18:46:33.904Z,-1.00
2023-03-11T18:49:02.403Z,-1.10
2023-03-11T18:51:31.812Z,-1.10
2023-03-11T18:53:59.621Z,-1.20
2023-03-11T18:56:26.892Z,-1.30
2023-03-11T18:58:55.877Z,-1.40
2023-03-11T19:01:23.090Z,-1.60
2023-03-11T19:03:58.302Z,-1.70
2023-03-11T19:06:27.258Z,-1.70
2023-03-11T19:08:54.720Z,-1.70
2023-03-11T19:11:23.736Z,-1.80
2023-03-11T19:13:51.135Z,-1.90
2023-03-11T19:16:21.243Z,-2.00
2023-03-11T19:18:48.791Z,-2.10
2023-03-11T19:21:16.666Z,-2.10
2023-03-11T19:23:44.457Z,-2.20
2023-03-11T19:26:11.631Z,-2.20
2023-03-11T19:28:38.707Z,-2.20
2023-03-11T19:31:06.462Z,-2.20
2023-03-11T19:33:33.713Z,-2.20
2023-03-11T19:36:03.218Z,-2.30
2023-03-11T19:38:30.830Z,-2.30
2023-03-11T19:41:05.207Z,-2.40
2023-03-11T19:43:32.988Z,-2.50
2023-03-11T19:46:00.066Z,-2.60
2023-03-11T19:48:27.215Z,-2.70
2023-03-11T19:50:54.225Z,-2.90
2023-03-11T19:53:23.291Z,-2.90
2023-03-11T19:55:53.478Z,-3.00
2023-03-11T19:58:21.646Z,-3.10
2023-03-11T20:00:48.671Z,-3.20
2023-03-11T20:03:16.096Z,-3.30
2023-03-11T20:05:46.028Z,-3.40
2023-03-11T20:08:15.962Z,-3.40
2023-03-11T20:10:46.341Z,-3.40
2023-03-11T20:13:14.671Z,-3.50
2023-03-11T20:15:41.708Z,-3.40
2023-03-11T20:18:08.840Z,-3.40
2023-03-11T20:20:38.715Z,-3.50
2023-03-11T20:23:06.499Z,-3.60
2023-03-11T20:25:35.061Z,-3.60
2023-03-11T20:28:02.210Z,-3.70
2023-03-11T20:30:29.598Z,-3.80
2023-03-11T20:32:56.799Z,-3.80
2023-03-11T20:35:24.034Z,-3.90
2023-03-11T20:37:51.178Z,-3.90
2023-03-11T20:40:19.392Z,-3.90
2023-03-11T20:42:49.249Z,-3.80
2023-03-11T20:45:21.618Z,-3.80
2023-03-11T20:47:50.099Z,-3.90
2023-03-11T20:50:17.762Z,-4.00
2023-03-11T20:52:44.779Z,-4.10
2023-03-11T20:55:12.653Z,-4.10
2023-03-11T20:57:40.141Z,-4.10
2023-03-11T21:00:11.746Z,-4.10
2023-03-11T21:02:40.181Z,-4.10
2023-03-11T21:05:08.662Z,-4.00
2023-03-11T21:07:36.174Z,-3.90
2023-03-11T21:10:06.038Z,-3.90
2023-03-11T21:12:33.164Z,-3.90
2023-03-11T21:15:00.366Z,-4.00
2023-03-11T21:17:27.398Z,-4.00
2023-03-11T21:19:54.447Z,-4.00
2023-03-11T21:22:21.463Z,-4.00
2023-03-11T21:24:53.064Z,-4.00
2023-03-11T21:27:27.103Z,-3.90
2023-03-11T21:29:55.561Z,-4.00
2023-03-11T21:32:23.818Z,-4.00
2023-03-11T21:34:51.330Z,-4.10
2023-03-11T21:37:18.350Z,-4.20
2023-03-11T21:39:45.393Z,-4.20
2023-03-11T21:42:12.476Z,-4.30
2023-03-11T21:44:40.481Z,-4.30
2023-03-11T21:47:07.966Z,-4.40
2023-03-11T21:49:35.170Z,-4.40
2023-03-11T21:52:02.503Z,-4.30
2023-03-11T21:54:29.805Z,-4.30
2023-03-11T21:56:57.000Z,-4.30
2023-03-11T21:59:25.635Z,-4.20
2023-03-11T22:01:53.482Z,-4.20
2023-03-11T22:04:20.874Z,-4.10
2023-03-11T22:06:48.058Z,-4.20
2023-03-11T22:09:15.302Z,-4.20
2023-03-11T22:11:42.281Z,-4.30
2023-03-11T22:14:09.415Z,-4.40
2023-03-11T22:16:36.489Z,-4.40
2023-03-11T22:19:05.474Z,-4.50
2023-03-11T22:21:32.414Z,-4.60
2023-03-11T22:23:59.481Z,-4.60
2023-03-11T22:26:26.554Z,-4.60
2023-03-11T22:28:53.579Z,-4.60
2023-03-11T22:31:20.613Z,-4.60
2023-03-11T22:33:47.650Z,-4.60
2023-03-11T22:36:14.706Z,-4.60
2023-03-11T22:38:44.353Z,-4.60
2023-03-11T22:41:12.360Z,-4.60
2023-03-11T22:43:39.968Z,-4.60
2023-03-11T22:46:07.204Z,-4.70
2023-03-11T22:48:34.540Z,-4.80
2023-03-11T22:51:02.118Z,-4.90
2023-03-11T22:53:29.176Z,-4.80
2023-03-11T22:55:56.205Z,-4.80
2023-03-11T22:58:23.326Z,-4.80
2023-03-11T23:00:50.274Z,-4.80
2023-03-11T23:03:17.282Z,-4.80
2023-03-11T23:05:45.980Z,-4.70
2023-03-11T23:08:16.761Z,-4.80
2023-03-11T23:10:46.205Z,-4.80
2023-03-11T23:13:13.631Z,-4.90
2023-03-11T23:15:47.279Z,-5.00
2023-03-11T23:18:14.837Z,-5.00
2023-03-11T23:20:43.247Z,-5.10
2023-03-11T23:23:10.872Z,-5.10
2023-03-11T23:25:39.158Z,-5.20
2023-03-11T23:28:06.961Z,-5.20
2023-03-11T23:30:34.157Z,-5.30
2023-03-11T23:33:03.085Z,-5.30
2023-03-11T23:35:31.045Z,-5.40
2023-03-11T23:37:58.426Z,-5.40
2023-03-11T23:40:25.916Z,-5.40
2023-03-11T23:42:52.871Z,-5.40
2023-03-11T23:45:19.870Z,-5.40
2023-03-11T23:47:46.900Z,-5.40
2023-03-11T23:50:13.975Z,-5.30
2023-03-11T23:52:40.980Z,-5.30
2023-03-11T23:55:08.755Z,-5.30
2023-03-11T23:57:36.553Z,-5.20
